Time;durP1;ratioP1;P1;durP2;ratioP2;P2;SDS_P1;SDS_P2;PMS_P1;PMS_P2;Temp;Humidity;BMP_temperature;BMP_pressure;BME280_temperature;BME280_humidity;BME280_pressure;Samples;Min_cycle;Max_cycle;Signal;HPM_P1;HPM_P2
2022/03/30 00:01:23;;;;;;;28.63;18.40;;;;;;;;;;5033534;28;20470;-46
2022/03/30 00:03:48;;;;;;;32.23;16.80;;;;;;;;;;5033953;28;20445;-48
2022/03/30 00:06:14;;;;;;;40.23;18.77;;;;;;;;;;5033714;28;20892;-48
2022/03/30 00:08:42;;;;;;;31.07;17.47;;;;;;;;;;5033942;28;20451;-46
2022/03/30 00:11:08;;;;;;;33.23;17.47;;;;;;;;;;5033380;28;20956;-46
2022/03/30 00:13:35;;;;;;;29.73;16.77;;;;;;;;;;5033782;28;20902;-47
2022/03/30 00:16:01;;;;;;;27.10;15.90;;;;;;;;;;5033598;28;20451;-46
2022/03/30 00:18:28;;;;;;;28.37;16.63;;;;;;;;;;5033732;28;20945;-47
2022/03/30 00:20:54;;;;;;;26.80;15.83;;;;;;;;;;5033204;28;20416;-47
2022/03/30 00:23:20;;;;;;;29.07;16.63;;;;;;;;;;5033527;28;20866;-48
2022/03/30 00:25:46;;;;;;;36.40;16.93;;;;;;;;;;5033520;28;20407;-47
2022/03/30 00:28:12;;;;;;;29.40;16.30;;;;;;;;;;5033721;28;20409;-47
2022/03/30 00:30:38;;;;;;;32.97;16.20;;;;;;;;;;5033189;28;20551;-48
2022/03/30 00:33:04;;;;;;;30.67;15.93;;;;;;;;;;5033125;28;20434;-49
2022/03/30 00:35:31;;;;;;;36.30;16.77;;;;;;;;;;5033189;28;20414;-48
2022/03/30 00:37:57;;;;;;;34.17;17.13;;;;;;;;;;5033331;28;20476;-47
2022/03/30 00:40:23;;;;;;;30.40;17.60;;;;;;;;;;5033271;28;20458;-48
2022/03/30 00:42:49;;;;;;;27.10;15.93;;;;;;;;;;5033094;28;20461;-47
2022/03/30 00:45:21;;;;;;;32.03;17.03;;;;;;;;;;5033256;28;20414;-47
2022/03/30 00:47:47;;;;;;;29.70;16.33;;;;;;;;;;5033160;28;20398;-47
2022/03/30 00:50:15;;;;;;;28.63;15.60;;;;;;;;;;5032661;28;20463;-48
2022/03/30 00:52:42;;;;;;;31.27;17.40;;;;;;;;;;5032901;28;20429;-47
2022/03/30 00:55:09;;;;;;;33.43;16.57;;;;;;;;;;5033041;28;20403;-46
2022/03/30 00:57:36;;;;;;;34.10;16.90;;;;;;;;;;5033139;28;20411;-46
2022/03/30 01:00:04;;;;;;;31.43;16.53;;;;;;;;;;5032713;28;20910;-46
2022/03/30 01:02:30;;;;;;;31.33;17.50;;;;;;;;;;5031912;28;20834;-48
2022/03/30 01:04:56;;;;;;;27.10;16.33;;;;;;;;;;5032391;28;20464;-47
2022/03/30 01:07:22;;;;;;;28.70;16.47;;;;;;;;;;5032580;28;20447;-47
2022/03/30 01:09:48;;;;;;;40.37;16.60;;;;;;;;;;5032624;28;20903;-46
2022/03/30 01:12:15;;;;;;;31.40;17.33;;;;;;;;;;5032632;28;20426;-46
2022/03/30 01:14:41;;;;;;;35.70;16.77;;;;;;;;;;5032579;28;20403;-47
2022/03/30 01:17:07;;;;;;;36.43;16.97;;;;;;;;;;5032616;28;20418;-48
2022/03/30 01:19:37;;;;;;;24.77;16.13;;;;;;;;;;5032462;28;20437;-46
2022/03/30 01:22:03;;;;;;;36.60;18.80;;;;;;;;;;5032468;28;20466;-46
2022/03/30 01:24:29;;;;;;;32.03;17.90;;;;;;;;;;5032497;28;20399;-47
2022/03/30 01:26:55;;;;;;;35.73;17.33;;;;;;;;;;5032499;28;20403;-46
2022/03/30 01:34:51;;;;;;;35.20;18.53;;;;;;;;;;5032392;28;20490;-47
2022/03/30 01:37:17;;;;;;;28.40;17.57;;;;;;;;;;5032388;28;20446;-47
2022/03/30 01:39:43;;;;;;;34.83;19.03;;;;;;;;;;5032049;28;20410;-47
2022/03/30 01:42:09;;;;;;;34.00;16.83;;;;;;;;;;5031880;28;20472;-47
2022/03/30 01:44:36;;;;;;;29.33;18.03;;;;;;;;;;5032170;28;20398;-47
2022/03/30 01:47:02;;;;;;;35.95;17.70;;;;;;;;;;5032297;28;20403;-46
2022/03/30 01:49:28;;;;;;;29.30;17.20;;;;;;;;;;5031900;28;20250;-47
2022/03/30 01:51:56;;;;;;;31.43;17.90;;;;;;;;;;5031884;28;20434;-47
2022/03/30 01:54:23;;;;;;;36.88;17.13;;;;;;;;;;5032386;28;20407;-46
2022/03/30 01:56:49;;;;;;;30.55;16.65;;;;;;;;;;5031908;28;20217;-47
2022/03/30 01:59:16;;;;;;;33.28;16.70;;;;;;;;;;5031868;28;20168;-47
2022/03/30 02:01:42;;;;;;;30.77;17.45;;;;;;;;;;5031771;28;20290;-46
2022/03/30 02:04:08;;;;;;;29.20;17.37;;;;;;;;;;5032071;28;20172;-46
2022/03/30 02:06:34;;;;;;;28.17;17.08;;;;;;;;;;5032264;28;20626;-46
2022/03/30 02:09:00;;;;;;;42.22;17.83;;;;;;;;;;5031858;28;20167;-46
2022/03/30 02:11:26;;;;;;;36.80;18.40;;;;;;;;;;5031587;28;20238;-46
2022/03/30 02:13:55;;;;;;;37.50;18.00;;;;;;;;;;5031716;28;20439;-46
2022/03/30 02:16:22;;;;;;;34.35;17.65;;;;;;;;;;5031235;28;20489;-47
2022/03/30 02:18:47;;;;;;;34.40;18.08;;;;;;;;;;5031894;28;20201;-47
2022/03/30 02:21:15;;;;;;;36.97;18.67;;;;;;;;;;5031810;28;20180;-47
2022/03/30 02:23:41;;;;;;;26.13;16.65;;;;;;;;;;5031589;28;20836;-46
2022/03/30 02:26:08;;;;;;;34.30;17.55;;;;;;;;;;5031567;28;20167;-47
2022/03/30 02:28:38;;;;;;;36.42;19.05;;;;;;;;;;5031780;28;20160;-47
2022/03/30 02:31:23;;;;;;;36.67;19.33;;;;;;;;;;5031154;28;20167;-48
2022/03/30 02:33:49;;;;;;;43.03;18.90;;;;;;;;;;5031479;28;20194;-46
2022/03/30 02:36:15;;;;;;;29.92;17.92;;;;;;;;;;5031595;28;20167;-46
2022/03/30 02:38:41;;;;;;;44.43;18.20;;;;;;;;;;5031583;28;20621;-46
2022/03/30 02:41:08;;;;;;;31.33;17.80;;;;;;;;;;5031230;28;20882;-46
2022/03/30 02:43:34;;;;;;;33.08;18.10;;;;;;;;;;5031363;28;20262;-46
2022/03/30 02:46:00;;;;;;;41.35;18.08;;;;;;;;;;5031511;28;20602;-47
2022/03/30 02:48:29;;;;;;;38.08;18.70;;;;;;;;;;5031524;28;20251;-46
2022/03/30 02:50:57;;;;;;;47.05;19.67;;;;;;;;;;5031220;28;20237;-49
2022/03/30 02:53:23;;;;;;;33.35;17.92;;;;;;;;;;5031328;28;20577;-46
2022/03/30 02:55:50;;;;;;;32.00;18.10;;;;;;;;;;5031474;28;20179;-46
2022/03/30 02:58:16;;;;;;;34.10;19.33;;;;;;;;;;5031341;28;20263;-47
2022/03/30 03:00:42;;;;;;;30.77;18.00;;;;;;;;;;5031150;28;20195;-48
2022/03/30 03:03:08;;;;;;;44.20;17.77;;;;;;;;;;5031133;28;20262;-47
2022/03/30 03:05:35;;;;;;;37.08;17.75;;;;;;;;;;5031292;28;20179;-46
2022/03/30 03:08:08;;;;;;;37.03;19.63;;;;;;;;;;5031305;28;20164;-48
2022/03/30 03:10:36;;;;;;;37.88;20.75;;;;;;;;;;5031133;28;20247;-46
2022/03/30 03:13:03;;;;;;;35.08;19.38;;;;;;;;;;5030997;28;20274;-46
2022/03/30 03:15:29;;;;;;;35.95;18.00;;;;;;;;;;5031264;28;20168;-47
2022/03/30 03:17:55;;;;;;;34.00;17.60;;;;;;;;;;5031187;28;20172;-46
2022/03/30 03:20:21;;;;;;;33.70;17.70;;;;;;;;;;5030940;28;20167;-46
2022/03/30 03:22:47;;;;;;;34.10;18.33;;;;;;;;;;5030983;28;20211;-46
2022/03/30 03:25:14;;;;;;;45.83;19.77;;;;;;;;;;5031168;28;20735;-48
2022/03/30 03:27:40;;;;;;;36.35;17.95;;;;;;;;;;5032839;28;20394;-47
2022/03/30 03:30:06;;;;;;;36.72;18.90;;;;;;;;;;5034420;28;20326;-47
2022/03/30 03:32:32;;;;;;;34.17;17.23;;;;;;;;;;5034447;28;20223;-45
2022/03/30 03:34:58;;;;;;;38.43;18.43;;;;;;;;;;5034540;28;20223;-47
2022/03/30 03:37:25;;;;;;;40.60;17.90;;;;;;;;;;5034489;28;20398;-47
2022/03/30 03:39:51;;;;;;;32.10;16.92;;;;;;;;;;5034288;28;20413;-47
2022/03/30 03:42:17;;;;;;;39.83;18.40;;;;;;;;;;5034131;28;20211;-47
2022/03/30 03:44:43;;;;;;;32.10;17.57;;;;;;;;;;5034420;28;20402;-47
2022/03/30 03:47:12;;;;;;;47.97;20.05;;;;;;;;;;5034385;28;20408;-47
2022/03/30 03:49:38;;;;;;;36.72;17.25;;;;;;;;;;5033955;28;20186;-46
2022/03/30 03:52:05;;;;;;;35.37;16.20;;;;;;;;;;5034073;28;20204;-46
2022/03/30 03:54:31;;;;;;;33.85;16.88;;;;;;;;;;5034166;28;20448;-46
2022/03/30 03:56:57;;;;;;;33.63;16.80;;;;;;;;;;5034219;28;20163;-46
2022/03/30 03:59:23;;;;;;;30.17;16.83;;;;;;;;;;5033906;28;20213;-46
2022/03/30 04:01:49;;;;;;;33.63;17.33;;;;;;;;;;5033963;28;20461;-46
2022/03/30 04:04:15;;;;;;;33.85;16.45;;;;;;;;;;5033351;28;20398;-46
2022/03/30 04:06:41;;;;;;;29.67;17.40;;;;;;;;;;5033087;28;20172;-46
2022/03/30 04:09:07;;;;;;;37.67;17.40;;;;;;;;;;5032336;28;20182;-46
2022/03/30 04:11:33;;;;;;;39.00;18.40;;;;;;;;;;5031928;28;20472;-46
2022/03/30 04:13:59;;;;;;;39.60;16.40;;;;;;;;;;5032531;28;20533;-47
2022/03/30 04:16:25;;;;;;;37.73;17.90;;;;;;;;;;5033818;28;20398;-46
2022/03/30 04:18:51;;;;;;;40.55;18.40;;;;;;;;;;5033736;28;20411;-48
2022/03/30 04:21:17;;;;;;;38.10;16.37;;;;;;;;;;5033457;28;20179;-47
2022/03/30 04:23:44;;;;;;;35.80;17.80;;;;;;;;;;5033475;28;20477;-46
2022/03/30 04:26:10;;;;;;;34.83;17.38;;;;;;;;;;5033616;28;20879;-46
2022/03/30 04:28:40;;;;;;;31.25;17.33;;;;;;;;;;5033836;28;20247;-46
2022/03/30 04:31:07;;;;;;;38.58;18.27;;;;;;;;;;5033314;28;20174;-46
2022/03/30 04:33:33;;;;;;;33.00;17.30;;;;;;;;;;5033365;28;20187;-46
2022/03/30 04:35:59;;;;;;;42.73;18.80;;;;;;;;;;5033644;28;20580;-47
2022/03/30 04:38:25;;;;;;;39.80;19.90;;;;;;;;;;5032873;28;20413;-46
2022/03/30 04:40:51;;;;;;;38.08;17.73;;;;;;;;;;5033422;28;20398;-47
2022/03/30 04:43:17;;;;;;;41.03;18.77;;;;;;;;;;5033319;28;20573;-47
2022/03/30 04:45:43;;;;;;;41.70;18.43;;;;;;;;;;5033228;28;20407;-47
2022/03/30 04:48:09;;;;;;;41.10;18.07;;;;;;;;;;5033237;28;20398;-46
2022/03/30 04:50:35;;;;;;;40.63;17.70;;;;;;;;;;5032924;28;20449;-47
2022/03/30 04:53:01;;;;;;;42.85;19.02;;;;;;;;;;5032884;28;20426;-47
2022/03/30 04:55:27;;;;;;;38.53;18.08;;;;;;;;;;5033148;28;20207;-46
2022/03/30 04:57:53;;;;;;;35.95;17.75;;;;;;;;;;5033100;28;20168;-46
2022/03/30 05:00:19;;;;;;;43.55;18.25;;;;;;;;;;5032939;28;20175;-46
2022/03/30 05:02:45;;;;;;;46.72;19.30;;;;;;;;;;5032739;28;20462;-46
2022/03/30 05:05:12;;;;;;;37.25;17.58;;;;;;;;;;5032921;28;20160;-46
2022/03/30 05:07:38;;;;;;;33.05;17.17;;;;;;;;;;5032761;28;20182;-46
2022/03/30 05:10:05;;;;;;;41.92;19.20;;;;;;;;;;5032589;28;20644;-47
2022/03/30 05:12:32;;;;;;;55.17;18.90;;;;;;;;;;5032614;28;20270;-46
2022/03/30 05:14:58;;;;;;;39.67;16.83;;;;;;;;;;5032762;28;20302;-46
2022/03/30 05:17:24;;;;;;;44.97;18.60;;;;;;;;;;5032686;28;20670;-46
2022/03/30 05:19:50;;;;;;;41.43;17.67;;;;;;;;;;5032403;28;20402;-46
2022/03/30 05:22:16;;;;;;;37.63;20.23;;;;;;;;;;5032222;28;20454;-47
2022/03/30 05:24:42;;;;;;;41.38;20.77;;;;;;;;;;5032499;28;20667;-46
2022/03/30 05:27:09;;;;;;;36.50;19.13;;;;;;;;;;5033287;28;20233;-46
2022/03/30 05:29:35;;;;;;;39.63;19.50;;;;;;;;;;5032240;28;20170;-46
2022/03/30 05:32:01;;;;;;;46.03;20.25;;;;;;;;;;5032289;28;20645;-46
2022/03/30 05:34:27;;;;;;;45.60;18.98;;;;;;;;;;5032364;28;20247;-46
2022/03/30 05:36:54;;;;;;;41.35;19.65;;;;;;;;;;5032287;28;20230;-46
2022/03/30 05:39:20;;;;;;;44.42;18.42;;;;;;;;;;5032156;28;20558;-46
2022/03/30 05:41:46;;;;;;;53.55;23.73;;;;;;;;;;5032153;28;20743;-46
2022/03/30 05:44:12;;;;;;;40.97;18.53;;;;;;;;;;5032367;28;20206;-46
2022/03/30 05:46:38;;;;;;;35.40;18.08;;;;;;;;;;5032258;28;20399;-46
2022/03/30 05:49:04;;;;;;;39.57;18.67;;;;;;;;;;5031696;28;20554;-46
2022/03/30 05:51:30;;;;;;;42.78;18.35;;;;;;;;;;5031513;28;20402;-46
2022/03/30 05:53:56;;;;;;;55.97;19.73;;;;;;;;;;5032129;28;20200;-46
2022/03/30 05:57:00;;;;;;;43.33;18.85;;;;;;;;;;5032056;28;20174;-46
2022/03/30 05:59:09;;;;;;;36.67;19.67;;;;;;;;;;5031997;28;20354;-46
2022/03/30 06:01:35;;;;;;;42.90;18.80;;;;;;;;;;5031424;28;20566;-46
2022/03/30 06:04:01;;;;;;;35.00;19.07;;;;;;;;;;5031401;28;20405;-46
2022/03/30 06:06:27;;;;;;;38.13;18.07;;;;;;;;;;5031442;28;20395;-46
2022/03/30 06:08:53;;;;;;;36.20;17.43;;;;;;;;;;5031485;28;21009;-46
2022/03/30 06:11:19;;;;;;;38.90;20.60;;;;;;;;;;5031348;28;20957;-46
2022/03/30 06:13:45;;;;;;;31.15;17.80;;;;;;;;;;5031288;28;20493;-46
2022/03/30 06:16:11;;;;;;;38.80;19.40;;;;;;;;;;5031254;28;20199;-47
2022/03/30 06:18:37;;;;;;;38.92;18.52;;;;;;;;;;5031387;28;20460;-46
2022/03/30 06:21:04;;;;;;;39.23;19.80;;;;;;;;;;5031244;28;20576;-47
2022/03/30 06:23:30;;;;;;;31.10;17.73;;;;;;;;;;5030984;28;20512;-46
2022/03/30 06:25:56;;;;;;;44.17;23.30;;;;;;;;;;5024698;28;20184;-46
2022/03/30 06:28:26;;;;;;;38.73;19.23;;;;;;;;;;5030870;28;20435;-45
2022/03/30 06:30:53;;;;;;;45.33;19.50;;;;;;;;;;5030459;28;20619;-46
2022/03/30 06:33:19;;;;;;;37.20;18.98;;;;;;;;;;5030315;28;20188;-46
2022/03/30 06:35:46;;;;;;;32.10;17.80;;;;;;;;;;5031386;28;20237;-46
2022/03/30 06:38:12;;;;;;;32.38;18.23;;;;;;;;;;5031728;28;20410;-47
2022/03/30 06:40:38;;;;;;;32.23;16.23;;;;;;;;;;5031443;28;20176;-47
2022/03/30 06:43:04;;;;;;;32.60;18.40;;;;;;;;;;5031379;28;20470;-46
2022/03/30 06:45:30;;;;;;;40.72;19.90;;;;;;;;;;5031453;28;20489;-46
2022/03/30 06:47:56;;;;;;;28.50;17.45;;;;;;;;;;5031545;28;20167;-46
2022/03/30 06:50:24;;;;;;;32.80;18.55;;;;;;;;;;5031241;28;20183;-46
2022/03/30 06:52:50;;;;;;;32.58;19.40;;;;;;;;;;5031478;28;20653;-46
2022/03/30 06:55:16;;;;;;;30.35;17.90;;;;;;;;;;5031480;28;20172;-46
2022/03/30 06:57:42;;;;;;;30.93;16.73;;;;;;;;;;5031421;28;20168;-46
2022/03/30 07:00:12;;;;;;;31.77;16.13;;;;;;;;;;5031098;28;20407;-46
2022/03/30 07:02:39;;;;;;;35.13;19.00;;;;;;;;;;5034699;28;20670;-46
2022/03/30 07:05:06;;;;;;;34.53;18.80;;;;;;;;;;5035202;28;20180;-46
2022/03/30 07:10:16;;;;;;;33.27;18.13;;;;;;;;;;5034894;28;20658;-48
2022/03/30 07:12:46;;;;;;;26.97;17.40;;;;;;;;;;5034831;28;20506;-47
2022/03/30 07:15:13;;;;;;;29.97;17.27;;;;;;;;;;5034975;28;20402;-46
2022/03/30 07:17:52;;;;;;;33.13;16.93;;;;;;;;;;5034887;28;20402;-48
2022/03/30 07:20:21;;;;;;;26.27;16.17;;;;;;;;;;5034800;28;20421;-47
2022/03/30 07:22:47;;;;;;;24.03;14.70;;;;;;;;;;5034706;28;20462;-46
2022/03/30 07:25:14;;;;;;;32.00;16.87;;;;;;;;;;5034815;28;20402;-46
2022/03/30 07:27:41;;;;;;;28.07;17.00;;;;;;;;;;5034797;28;20450;-47
2022/03/30 07:30:08;;;;;;;27.20;16.43;;;;;;;;;;5034538;28;20815;-49
2022/03/30 07:32:35;;;;;;;29.30;17.00;;;;;;;;;;5034542;28;20469;-47
2022/03/30 07:35:01;;;;;;;25.20;15.07;;;;;;;;;;5034615;28;20377;-46
2022/03/30 07:37:27;;;;;;;27.20;15.70;;;;;;;;;;5034791;28;20808;-47
2022/03/30 07:39:53;;;;;;;26.70;16.27;;;;;;;;;;5034360;28;20472;-48
2022/03/30 07:42:19;;;;;;;31.53;16.80;;;;;;;;;;5034320;28;20442;-47
2022/03/30 07:44:45;;;;;;;24.60;16.43;;;;;;;;;;5034392;28;20394;-47
2022/03/30 07:47:11;;;;;;;38.67;19.23;;;;;;;;;;5034482;28;20478;-47
2022/03/30 07:49:37;;;;;;;33.07;17.83;;;;;;;;;;5034105;28;21029;-48
2022/03/30 07:52:04;;;;;;;33.67;18.10;;;;;;;;;;5034153;28;20430;-48
2022/03/30 07:54:30;;;;;;;30.60;17.90;;;;;;;;;;5034296;28;20462;-48
2022/03/30 07:56:57;;;;;;;28.33;18.50;;;;;;;;;;5034266;28;20406;-47
2022/03/30 07:59:23;;;;;;;26.43;16.30;;;;;;;;;;5034004;28;20410;-48
2022/03/30 08:01:51;;;;;;;29.50;17.10;;;;;;;;;;5034071;28;20481;-46
2022/03/30 08:04:17;;;;;;;31.90;18.87;;;;;;;;;;5034125;28;20378;-47
2022/03/30 08:06:43;;;;;;;27.70;17.30;;;;;;;;;;5033964;28;20910;-47
2022/03/30 08:09:09;;;;;;;29.37;17.40;;;;;;;;;;5034044;28;20466;-47
2022/03/30 08:11:35;;;;;;;31.33;17.90;;;;;;;;;;5033466;28;20400;-47
2022/03/30 08:14:01;;;;;;;31.47;18.60;;;;;;;;;;5033069;28;20408;-47
2022/03/30 08:16:27;;;;;;;26.70;18.03;;;;;;;;;;5034036;28;20432;-48
2022/03/30 08:18:53;;;;;;;31.90;18.20;;;;;;;;;;5033779;28;20803;-48
2022/03/30 08:24:03;;;;;;;34.63;17.97;;;;;;;;;;5033857;28;20425;-47
2022/03/30 08:26:31;;;;;;;26.37;17.87;;;;;;;;;;5032147;28;20417;-47
2022/03/30 08:28:57;;;;;;;27.73;18.80;;;;;;;;;;5033164;28;20379;-50
2022/03/30 08:31:23;;;;;;;38.40;18.53;;;;;;;;;;5033372;28;20385;-48
2022/03/30 08:33:49;;;;;;;28.83;17.10;;;;;;;;;;5032661;28;20924;-48
2022/03/30 08:36:16;;;;;;;35.83;17.90;;;;;;;;;;5030786;28;20419;-47
2022/03/30 08:38:42;;;;;;;25.97;16.10;;;;;;;;;;5030437;28;20413;-48
2022/03/30 08:41:09;;;;;;;32.20;19.13;;;;;;;;;;5032924;28;20411;-48
2022/03/30 08:43:35;;;;;;;30.40;17.87;;;;;;;;;;5031205;28;20440;-47
2022/03/30 08:46:02;;;;;;;25.63;15.43;;;;;;;;;;5033169;28;20406;-47
2022/03/30 08:48:28;;;;;;;29.07;16.20;;;;;;;;;;5031395;28;20415;-47
2022/03/30 08:50:54;;;;;;;22.63;15.63;;;;;;;;;;5032213;28;20484;-47
2022/03/30 08:53:22;;;;;;;26.90;16.33;;;;;;;;;;5032914;28;20517;-47
2022/03/30 08:55:48;;;;;;;25.10;16.70;;;;;;;;;;5032947;28;20477;-48
2022/03/30 08:58:14;;;;;;;28.23;15.20;;;;;;;;;;5033205;28;20908;-48
2022/03/30 09:00:40;;;;;;;19.67;14.70;;;;;;;;;;5032710;28;20429;-47
2022/03/30 09:03:07;;;;;;;24.33;15.03;;;;;;;;;;5032672;28;20484;-48
2022/03/30 09:05:37;;;;;;;27.00;15.30;;;;;;;;;;5031923;28;20437;-47
2022/03/30 09:08:20;;;;;;;22.27;14.77;;;;;;;;;;5032833;28;20780;-49
2022/03/30 09:10:48;;;;;;;27.73;15.80;;;;;;;;;;5032575;28;20878;-48
2022/03/30 09:13:14;;;;;;;22.77;15.87;;;;;;;;;;5032727;28;20432;-47
2022/03/30 09:15:41;;;;;;;24.17;15.00;;;;;;;;;;5032802;28;20462;-50
2022/03/30 09:18:09;;;;;;;25.77;15.57;;;;;;;;;;5032948;28;20409;-48
2022/03/30 09:20:37;;;;;;;24.10;15.20;;;;;;;;;;5032583;28;20402;-49
2022/03/30 09:23:03;;;;;;;22.73;14.73;;;;;;;;;;5031743;28;20465;-48
2022/03/30 09:25:31;;;;;;;22.63;15.60;;;;;;;;;;5018870;28;20419;-49
2022/03/30 09:27:57;;;;;;;26.03;14.87;;;;;;;;;;5023707;28;20505;-48
2022/03/30 09:30:25;;;;;;;22.93;15.47;;;;;;;;;;5028207;28;20422;-49
2022/03/30 09:32:52;;;;;;;20.77;15.83;;;;;;;;;;5026497;28;20556;-47
2022/03/30 09:35:24;;;;;;;25.70;15.87;;;;;;;;;;5032252;28;20410;-48
2022/03/30 09:38:10;;;;;;;22.50;16.03;;;;;;;;;;5032355;28;20789;-47
2022/03/30 09:40:39;;;;;;;28.00;13.90;;;;;;;;;;5016342;28;20411;-47
2022/03/30 09:43:11;;;;;;;21.83;13.80;;;;;;;;;;5012354;28;20463;-48
2022/03/30 09:45:37;;;;;;;22.53;14.37;;;;;;;;;;5012462;28;20449;-49
2022/03/30 09:48:18;;;;;;;24.23;13.57;;;;;;;;;;5012444;28;20419;-48
2022/03/30 09:50:45;;;;;;;22.37;14.60;;;;;;;;;;5012116;28;20423;-48
2022/03/30 09:53:11;;;;;;;23.00;14.37;;;;;;;;;;5031007;28;20972;-49
2022/03/30 09:55:50;;;;;;;18.57;13.13;;;;;;;;;;5031978;28;20941;-48
2022/03/30 09:58:19;;;;;;;22.13;14.13;;;;;;;;;;5032194;28;20402;-48
2022/03/30 10:00:48;;;;;;;24.80;13.63;;;;;;;;;;5031829;28;20401;-49
2022/03/30 10:03:15;;;;;;;20.37;12.73;;;;;;;;;;5031749;28;20524;-47
2022/03/30 10:05:41;;;;;;;16.40;13.50;;;;;;;;;;5030903;28;20780;-47
2022/03/30 10:08:07;;;;;;;20.47;13.07;;;;;;;;;;5032039;28;20398;-49
2022/03/30 10:10:33;;;;;;;19.10;12.53;;;;;;;;;;5031710;28;20410;-47
2022/03/30 10:12:59;;;;;;;19.23;12.40;;;;;;;;;;5031815;28;20563;-47
2022/03/30 10:15:26;;;;;;;21.70;12.13;;;;;;;;;;5031978;28;20771;-49
2022/03/30 10:17:52;;;;;;;18.93;11.83;;;;;;;;;;5031367;28;20919;-47
2022/03/30 10:20:21;;;;;;;18.30;12.63;;;;;;;;;;5031458;28;20512;-48
2022/03/30 10:22:58;;;;;;;20.47;12.40;;;;;;;;;;5030253;28;21079;-49
2022/03/30 10:25:43;;;;;;;19.30;13.87;;;;;;;;;;5011472;28;20403;-47
2022/03/30 10:28:18;;;;;;;20.57;12.13;;;;;;;;;;5023901;28;20475;-49
2022/03/30 10:30:44;;;;;;;14.80;10.90;;;;;;;;;;5031501;28;20470;-49
2022/03/30 10:33:11;;;;;;;18.03;10.20;;;;;;;;;;5030088;28;20425;-47
2022/03/30 10:35:43;;;;;;;13.17;10.50;;;;;;;;;;5032220;28;20425;-48
2022/03/30 10:38:10;;;;;;;13.70;10.83;;;;;;;;;;5035697;28;20459;-49
2022/03/30 10:40:36;;;;;;;18.33;10.10;;;;;;;;;;5035133;28;20764;-48
2022/03/30 10:43:10;;;;;;;18.33;11.40;;;;;;;;;;5035379;28;20451;-49
2022/03/30 10:45:41;;;;;;;16.97;11.37;;;;;;;;;;5035562;28;20410;-49
2022/03/30 10:48:13;;;;;;;13.37;10.10;;;;;;;;;;5035664;28;20412;-47
2022/03/30 10:50:43;;;;;;;13.70;9.93;;;;;;;;;;5035651;28;20925;-48
2022/03/30 10:53:28;;;;;;;17.80;10.43;;;;;;;;;;5035227;28;20453;-49
2022/03/30 10:55:54;;;;;;;12.87;9.00;;;;;;;;;;5035375;28;20890;-48
2022/03/30 10:58:20;;;;;;;14.80;11.10;;;;;;;;;;5035324;28;20882;-48
2022/03/30 11:00:46;;;;;;;13.03;9.60;;;;;;;;;;5035078;28;20762;-49
2022/03/30 11:03:16;;;;;;;13.30;9.97;;;;;;;;;;5035043;28;20817;-50
2022/03/30 11:05:46;;;;;;;13.30;10.03;;;;;;;;;;5035053;28;20930;-47
2022/03/30 11:08:31;;;;;;;14.73;10.00;;;;;;;;;;5035113;28;20402;-51
2022/03/30 11:10:57;;;;;;;14.43;10.77;;;;;;;;;;5034896;28;20404;-49
2022/03/30 11:13:24;;;;;;;16.93;11.20;;;;;;;;;;5034926;28;20414;-48
2022/03/30 11:15:59;;;;;;;15.57;10.93;;;;;;;;;;5035010;28;20460;-48
2022/03/30 11:18:26;;;;;;;14.83;10.83;;;;;;;;;;5034908;28;20402;-48
2022/03/30 11:21:11;;;;;;;15.53;10.13;;;;;;;;;;5034707;28;20409;-49
2022/03/30 11:23:37;;;;;;;18.13;10.67;;;;;;;;;;5034602;28;20453;-48
2022/03/30 11:26:03;;;;;;;12.10;10.80;;;;;;;;;;5035886;28;20410;-51
2022/03/30 11:28:40;;;;;;;14.40;10.40;;;;;;;;;;5034781;28;20918;-51
2022/03/30 11:31:21;;;;;;;18.87;11.00;;;;;;;;;;5034523;28;20894;-50
2022/03/30 11:34:07;;;;;;;14.37;10.23;;;;;;;;;;5034603;28;20421;-50
2022/03/30 11:36:33;;;;;;;14.00;10.53;;;;;;;;;;5034599;28;20413;-50
2022/03/30 11:39:01;;;;;;;11.47;9.73;;;;;;;;;;5034378;28;20449;-50
2022/03/30 11:41:27;;;;;;;12.50;9.67;;;;;;;;;;5034182;28;20412;-52
2022/03/30 11:46:38;;;;;;;13.40;9.77;;;;;;;;;;5034745;28;20401;-51
2022/03/30 11:49:05;;;;;;;13.73;9.80;;;;;;;;;;5033097;28;20904;-50
2022/03/30 11:51:32;;;;;;;13.00;9.97;;;;;;;;;;5034100;28;20440;-50
2022/03/30 11:54:11;;;;;;;13.70;9.23;;;;;;;;;;5034070;28;20806;-50
2022/03/30 11:56:37;;;;;;;10.70;9.70;;;;;;;;;;5034240;28;20886;-52
2022/03/30 11:59:04;;;;;;;17.37;10.70;;;;;;;;;;5034257;28;20447;-51
2022/03/30 12:01:30;;;;;;;15.37;9.77;;;;;;;;;;5033955;28;20472;-51
2022/03/30 12:03:56;;;;;;;15.07;10.77;;;;;;;;;;5034085;28;20800;-51
2022/03/30 12:06:22;;;;;;;20.07;10.93;;;;;;;;;;5034000;28;20426;-51
2022/03/30 12:08:49;;;;;;;14.70;10.77;;;;;;;;;;5034323;28;20433;-52
2022/03/30 12:11:19;;;;;;;11.23;10.03;;;;;;;;;;5033852;28;20430;-50
2022/03/30 12:13:49;;;;;;;13.13;10.53;;;;;;;;;;5033781;28;20457;-51
2022/03/30 12:16:16;;;;;;;17.37;11.70;;;;;;;;;;5033867;28;21134;-51
2022/03/30 12:18:49;;;;;;;17.20;11.10;;;;;;;;;;5033759;28;20406;-50
2022/03/30 12:21:18;;;;;;;17.17;12.43;;;;;;;;;;5033947;28;20402;-50
2022/03/30 12:23:55;;;;;;;16.23;11.30;;;;;;;;;;5033347;28;20456;-48
2022/03/30 12:26:21;;;;;;;15.70;11.20;;;;;;;;;;5033379;28;20409;-51
2022/03/30 12:28:47;;;;;;;17.37;12.30;;;;;;;;;;5033701;28;20400;-51
2022/03/30 12:31:14;;;;;;;13.70;10.70;;;;;;;;;;5033422;28;20792;-49
2022/03/30 12:33:47;;;;;;;16.83;12.43;;;;;;;;;;5033627;28;20439;-51
2022/03/30 12:36:13;;;;;;;20.77;12.10;;;;;;;;;;5033571;28;20426;-51
2022/03/30 12:38:39;;;;;;;17.77;12.50;;;;;;;;;;5033483;28;20404;-51
2022/03/30 12:41:05;;;;;;;14.53;12.40;;;;;;;;;;5033315;28;20418;-49
2022/03/30 12:43:31;;;;;;;16.23;12.20;;;;;;;;;;5033326;28;20556;-51
2022/03/30 12:46:00;;;;;;;17.00;12.07;;;;;;;;;;5033265;28;20405;-51
2022/03/30 12:48:36;;;;;;;18.13;12.03;;;;;;;;;;5033439;28;20415;-50
2022/03/30 12:51:02;;;;;;;12.97;10.73;;;;;;;;;;5033082;28;20405;-51
2022/03/30 12:53:39;;;;;;;16.27;10.30;;;;;;;;;;5032167;28;20434;-51
2022/03/30 12:56:18;;;;;;;13.43;10.30;;;;;;;;;;5033133;28;20397;-50
2022/03/30 12:59:14;;;;;;;17.27;9.10;;;;;;;;;;5032758;28;20419;-50
2022/03/30 13:01:43;;;;;;;10.60;9.50;;;;;;;;;;5023973;28;20418;-48
2022/03/30 13:04:20;;;;;;;11.60;9.33;;;;;;;;;;5032976;28;20399;-51
2022/03/30 13:07:05;;;;;;;13.67;9.67;;;;;;;;;;5032731;28;20484;-52
2022/03/30 13:09:31;;;;;;;13.83;10.23;;;;;;;;;;5032763;28;20761;-52
2022/03/30 13:12:00;;;;;;;15.13;10.07;;;;;;;;;;5032687;28;20434;-52
2022/03/30 13:14:26;;;;;;;15.00;9.47;;;;;;;;;;5032784;28;20409;-50
2022/03/30 13:17:12;;;;;;;12.63;9.83;;;;;;;;;;5032891;28;20398;-51
2022/03/30 13:19:38;;;;;;;14.60;11.30;;;;;;;;;;5032315;28;20463;-51
2022/03/30 13:22:06;;;;;;;14.47;10.57;;;;;;;;;;5032371;28;20453;-51
2022/03/30 13:24:32;;;;;;;12.77;10.50;;;;;;;;;;5032668;28;21012;-52
2022/03/30 13:27:03;;;;;;;12.30;9.03;;;;;;;;;;5032634;28;20485;-51
2022/03/30 13:29:29;;;;;;;11.20;8.90;;;;;;;;;;5032374;28;20447;-50
2022/03/30 13:31:55;;;;;;;13.53;10.30;;;;;;;;;;5032569;28;20849;-51
2022/03/30 13:34:24;;;;;;;13.67;10.80;;;;;;;;;;5032486;28;20412;-50
2022/03/30 13:36:50;;;;;;;15.70;11.10;;;;;;;;;;5032441;28;20412;-50
2022/03/30 13:39:16;;;;;;;16.67;9.23;;;;;;;;;;5032453;28;20939;-50
2022/03/30 13:41:43;;;;;;;12.60;10.33;;;;;;;;;;5032177;28;20412;-51
2022/03/30 13:44:09;;;;;;;13.40;9.03;;;;;;;;;;5032251;28;20421;-50
2022/03/30 13:46:35;;;;;;;14.30;9.50;;;;;;;;;;5032396;28;20402;-51
2022/03/30 13:49:02;;;;;;;10.60;9.50;;;;;;;;;;5030957;28;20425;-50
2022/03/30 13:51:29;;;;;;;10.57;8.80;;;;;;;;;;5031971;28;20839;-51
2022/03/30 13:53:55;;;;;;;14.50;9.70;;;;;;;;;;5031916;28;20436;-50
2022/03/30 13:56:21;;;;;;;15.10;10.20;;;;;;;;;;5032243;28;20415;-50
2022/03/30 13:58:50;;;;;;;19.30;10.70;;;;;;;;;;5032074;28;20433;-51
2022/03/30 14:01:18;;;;;;;11.60;9.27;;;;;;;;;;5031854;28;20406;-51
2022/03/30 14:03:45;;;;;;;14.70;8.60;;;;;;;;;;5031825;28;20457;-50
2022/03/30 14:06:10;;;;;;;12.60;8.83;;;;;;;;;;5031955;28;20961;-51
2022/03/30 14:08:36;;;;;;;13.30;8.93;;;;;;;;;;5032017;28;20404;-50
2022/03/30 14:11:03;;;;;;;14.17;9.20;;;;;;;;;;5031153;28;20415;-50
2022/03/30 14:13:29;;;;;;;11.37;9.00;;;;;;;;;;5031708;28;20432;-51
2022/03/30 14:15:56;;;;;;;13.17;8.83;;;;;;;;;;5031912;28;20415;-50
2022/03/30 14:18:23;;;;;;;16.23;9.87;;;;;;;;;;5031982;28;20449;-50
2022/03/30 14:20:50;;;;;;;13.20;9.03;;;;;;;;;;5031704;28;20401;-51
2022/03/30 14:23:16;;;;;;;12.17;9.20;;;;;;;;;;5031899;28;20452;-51
2022/03/30 14:25:42;;;;;;;11.73;9.30;;;;;;;;;;5031883;28;20783;-50
2022/03/30 14:28:09;;;;;;;10.33;8.53;;;;;;;;;;5031851;28;20402;-50
2022/03/30 14:30:37;;;;;;;11.27;8.37;;;;;;;;;;5031951;28;20401;-50
2022/03/30 14:33:03;;;;;;;14.83;8.30;;;;;;;;;;5031553;28;20426;-49
2022/03/30 14:35:30;;;;;;;10.00;7.80;;;;;;;;;;5031616;28;20406;-50